sensor_id;sensor_type;location;lat;lon;timestamp;P1;durP1;ratioP1;P2;durP2;ratioP2
47539;SDS011;33280;52.152;21.052;2023-03-01T00:01:15;90.07;;;36.03;;
47539;SDS011;33280;52.152;21.052;2023-03-01T00:03:44;87.00;;;35.53;;
47539;SDS011;33280;52.152;21.052;2023-03-01T00:06:11;92.03;;;36.23;;
47539;SDS011;33280;52.152;21.052;2023-03-01T00:08:38;86.87;;;35.70;;
47539;SDS011;33280;52.152;21.052;2023-03-01T00:13:41;88.50;;;33.67;;
47539;SDS011;33280;52.152;21.052;2023-03-01T00:16:31;86.80;;;34.70;;
47539;SDS011;33280;52.152;21.052;2023-03-01T00:19:00;87.47;;;34.23;;
47539;SDS011;33280;52.152;21.052;2023-03-01T00:21:27;79.47;;;33.60;;
47539;SDS011;33280;52.152;21.052;2023-03-01T00:23:54;79.27;;;33.07;;
47539;SDS011;33280;52.152;21.052;2023-03-01T00:26:22;78.53;;;32.87;;
47539;SDS011;33280;52.152;21.052;2023-03-01T00:28:50;78.63;;;32.40;;
47539;SDS011;33280;52.152;21.052;2023-03-01T00:31:19;79.93;;;32.80;;
47539;SDS011;33280;52.152;21.052;2023-03-01T00:33:47;76.03;;;32.23;;
47539;SDS011;33280;52.152;21.052;2023-03-01T00:36:19;74.13;;;31.53;;
47539;SDS011;33280;52.152;21.052;2023-03-01T00:38:46;85.13;;;33.30;;
47539;SDS011;33280;52.152;21.052;2023-03-01T00:41:14;77.97;;;32.13;;
47539;SDS011;33280;52.152;21.052;2023-03-01T00:43:42;75.53;;;31.53;;
47539;SDS011;33280;52.152;21.052;2023-03-01T00:46:11;70.37;;;30.90;;
47539;SDS011;33280;52.152;21.052;2023-03-01T00:48:40;69.37;;;30.73;;
47539;SDS011;33280;52.152;21.052;2023-03-01T00:51:08;75.00;;;31.13;;
47539;SDS011;33280;52.152;21.052;2023-03-01T00:53:39;71.87;;;30.70;;
47539;SDS011;33280;52.152;21.052;2023-03-01T00:56:08;74.13;;;30.70;;
47539;SDS011;33280;52.152;21.052;2023-03-01T00:58:36;76.43;;;29.63;;
47539;SDS011;33280;52.152;21.052;2023-03-01T01:01:08;67.57;;;29.23;;
47539;SDS011;33280;52.152;21.052;2023-03-01T01:06:18;66.77;;;29.30;;
47539;SDS011;33280;52.152;21.052;2023-03-01T01:08:50;67.47;;;29.03;;
47539;SDS011;33280;52.152;21.052;2023-03-01T01:11:18;68.67;;;27.97;;
47539;SDS011;33280;52.152;21.052;2023-03-01T01:13:46;74.27;;;29.77;;
47539;SDS011;33280;52.152;21.052;2023-03-01T01:16:14;68.90;;;28.60;;
47539;SDS011;33280;52.152;21.052;2023-03-01T01:18:43;67.63;;;28.43;;
47539;SDS011;33280;52.152;21.052;2023-03-01T01:21:11;69.37;;;29.07;;
47539;SDS011;33280;52.152;21.052;2023-03-01T01:23:40;71.20;;;28.87;;
47539;SDS011;33280;52.152;21.052;2023-03-01T01:26:09;69.23;;;29.43;;
47539;SDS011;33280;52.152;21.052;2023-03-01T01:28:41;75.07;;;29.57;;
47539;SDS011;33280;52.152;21.052;2023-03-01T01:31:08;68.80;;;28.77;;
47539;SDS011;33280;52.152;21.052;2023-03-01T01:33:35;70.33;;;29.10;;
47539;SDS011;33280;52.152;21.052;2023-03-01T01:36:04;71.20;;;28.80;;
47539;SDS011;33280;52.152;21.052;2023-03-01T01:38:32;69.73;;;29.43;;
47539;SDS011;33280;52.152;21.052;2023-03-01T01:41:00;68.77;;;29.47;;
47539;SDS011;33280;52.152;21.052;2023-03-01T01:46:00;67.60;;;28.47;;
47539;SDS011;33280;52.152;21.052;2023-03-01T01:48:40;66.60;;;28.93;;
47539;SDS011;33280;52.152;21.052;2023-03-01T01:51:16;64.20;;;28.47;;
47539;SDS011;33280;52.152;21.052;2023-03-01T01:53:47;67.13;;;28.73;;
47539;SDS011;33280;52.152;21.052;2023-03-01T01:56:17;68.73;;;28.57;;
47539;SDS011;33280;52.152;21.052;2023-03-01T01:58:46;70.67;;;27.90;;
47539;SDS011;33280;52.152;21.052;2023-03-01T02:01:14;73.57;;;29.30;;
47539;SDS011;33280;52.152;21.052;2023-03-01T02:03:41;71.07;;;28.37;;
47539;SDS011;33280;52.152;21.052;2023-03-01T02:08:57;73.47;;;27.40;;
47539;SDS011;33280;52.152;21.052;2023-03-01T02:11:29;66.93;;;28.70;;
47539;SDS011;33280;52.152;21.052;2023-03-01T02:13:59;67.80;;;28.87;;
47539;SDS011;33280;52.152;21.052;2023-03-01T02:16:26;67.87;;;27.97;;
47539;SDS011;33280;52.152;21.052;2023-03-01T02:18:55;70.03;;;28.43;;
47539;SDS011;33280;52.152;21.052;2023-03-01T02:26:55;70.03;;;28.17;;
47539;SDS011;33280;52.152;21.052;2023-03-01T02:29:27;70.27;;;27.40;;
47539;SDS011;33280;52.152;21.052;2023-03-01T02:31:55;67.37;;;28.90;;
47539;SDS011;33280;52.152;21.052;2023-03-01T02:34:25;69.13;;;28.77;;
47539;SDS011;33280;52.152;21.052;2023-03-01T02:37:07;68.90;;;28.53;;
47539;SDS011;33280;52.152;21.052;2023-03-01T02:39:48;74.77;;;28.93;;
47539;SDS011;33280;52.152;21.052;2023-03-01T02:42:22;71.93;;;28.77;;
47539;SDS011;33280;52.152;21.052;2023-03-01T02:44:52;73.17;;;29.67;;
47539;SDS011;33280;52.152;21.052;2023-03-01T02:47:20;66.03;;;28.63;;
47539;SDS011;33280;52.152;21.052;2023-03-01T02:49:46;69.20;;;27.47;;
47539;SDS011;33280;52.152;21.052;2023-03-01T02:54:55;63.70;;;27.67;;
47539;SDS011;33280;52.152;21.052;2023-03-01T02:57:32;67.63;;;29.13;;
47539;SDS011;33280;52.152;21.052;2023-03-01T03:00:03;70.80;;;29.20;;
47539;SDS011;33280;52.152;21.052;2023-03-01T03:02:35;70.27;;;28.77;;
47539;SDS011;33280;52.152;21.052;2023-03-01T03:05:09;68.57;;;28.80;;
47539;SDS011;33280;52.152;21.052;2023-03-01T03:07:40;67.60;;;28.90;;
47539;SDS011;33280;52.152;21.052;2023-03-01T03:10:13;69.87;;;29.37;;
47539;SDS011;33280;52.152;21.052;2023-03-01T03:12:51;72.87;;;29.93;;
47539;SDS011;33280;52.152;21.052;2023-03-01T03:15:30;72.30;;;29.07;;
47539;SDS011;33280;52.152;21.052;2023-03-01T03:17:58;69.87;;;30.00;;
47539;SDS011;33280;52.152;21.052;2023-03-01T03:20:26;65.47;;;27.70;;
47539;SDS011;33280;52.152;21.052;2023-03-01T03:22:54;63.57;;;27.50;;
47539;SDS011;33280;52.152;21.052;2023-03-01T03:25:23;66.00;;;27.07;;
47539;SDS011;33280;52.152;21.052;2023-03-01T03:27:51;69.60;;;27.73;;
47539;SDS011;33280;52.152;21.052;2023-03-01T03:30:25;68.30;;;27.47;;
47539;SDS011;33280;52.152;21.052;2023-03-01T03:32:55;66.53;;;27.53;;
47539;SDS011;33280;52.152;21.052;2023-03-01T03:35:27;66.10;;;26.17;;
47539;SDS011;33280;52.152;21.052;2023-03-01T03:38:00;76.03;;;27.67;;
47539;SDS011;33280;52.152;21.052;2023-03-01T03:43:05;68.50;;;27.37;;
47539;SDS011;33280;52.152;21.052;2023-03-01T03:45:34;70.50;;;27.43;;
47539;SDS011;33280;52.152;21.052;2023-03-01T03:48:02;64.10;;;26.97;;
47539;SDS011;33280;52.152;21.052;2023-03-01T03:50:32;68.37;;;28.53;;
47539;SDS011;33280;52.152;21.052;2023-03-01T03:53:00;69.83;;;27.53;;
47539;SDS011;33280;52.152;21.052;2023-03-01T03:55:27;69.83;;;28.10;;
47539;SDS011;33280;52.152;21.052;2023-03-01T03:57:57;66.63;;;26.33;;
47539;SDS011;33280;52.152;21.052;2023-03-01T04:00:28;64.23;;;26.60;;
47539;SDS011;33280;52.152;21.052;2023-03-01T04:02:55;69.77;;;26.67;;
47539;SDS011;33280;52.152;21.052;2023-03-01T04:05:23;70.73;;;27.90;;
47539;SDS011;33280;52.152;21.052;2023-03-01T04:07:50;70.73;;;27.97;;
47539;SDS011;33280;52.152;21.052;2023-03-01T04:10:31;60.57;;;27.03;;
47539;SDS011;33280;52.152;21.052;2023-03-01T04:13:19;63.90;;;25.53;;
47539;SDS011;33280;52.152;21.052;2023-03-01T04:15:51;63.40;;;25.87;;
47539;SDS011;33280;52.152;21.052;2023-03-01T04:18:21;62.67;;;26.53;;
47539;SDS011;33280;52.152;21.052;2023-03-01T04:20:53;67.27;;;26.10;;
47539;SDS011;33280;52.152;21.052;2023-03-01T04:23:26;70.57;;;27.00;;
47539;SDS011;33280;52.152;21.052;2023-03-01T04:25:57;69.37;;;26.63;;
47539;SDS011;33280;52.152;21.052;2023-03-01T04:28:29;65.93;;;26.40;;
47539;SDS011;33280;52.152;21.052;2023-03-01T04:31:06;72.73;;;27.53;;
47539;SDS011;33280;52.152;21.052;2023-03-01T04:33:45;63.23;;;25.93;;
47539;SDS011;33280;52.152;21.052;2023-03-01T04:36:14;66.83;;;26.37;;
47539;SDS011;33280;52.152;21.052;2023-03-01T04:38:47;67.93;;;27.10;;
47539;SDS011;33280;52.152;21.052;2023-03-01T04:41:18;59.87;;;25.83;;
47539;SDS011;33280;52.152;21.052;2023-03-01T04:43:46;71.50;;;27.30;;
47539;SDS011;33280;52.152;21.052;2023-03-01T04:46:16;68.13;;;26.13;;
47539;SDS011;33280;52.152;21.052;2023-03-01T04:48:45;61.90;;;27.13;;
47539;SDS011;33280;52.152;21.052;2023-03-01T04:51:13;64.90;;;26.10;;
47539;SDS011;33280;52.152;21.052;2023-03-01T04:53:40;68.23;;;26.47;;
47539;SDS011;33280;52.152;21.052;2023-03-01T04:56:08;64.23;;;25.93;;
47539;SDS011;33280;52.152;21.052;2023-03-01T04:58:36;61.77;;;26.37;;
47539;SDS011;33280;52.152;21.052;2023-03-01T05:01:07;65.70;;;26.57;;
47539;SDS011;33280;52.152;21.052;2023-03-01T05:03:42;63.37;;;26.47;;
47539;SDS011;33280;52.152;21.052;2023-03-01T05:06:13;68.87;;;26.53;;
47539;SDS011;33280;52.152;21.052;2023-03-01T05:08:41;62.27;;;25.23;;
47539;SDS011;33280;52.152;21.052;2023-03-01T05:11:09;65.67;;;26.57;;
47539;SDS011;33280;52.152;21.052;2023-03-01T05:13:37;60.70;;;25.30;;
47539;SDS011;33280;52.152;21.052;2023-03-01T05:16:05;57.63;;;24.20;;
47539;SDS011;33280;52.152;21.052;2023-03-01T05:18:33;62.10;;;24.50;;
47539;SDS011;33280;52.152;21.052;2023-03-01T05:21:18;56.43;;;24.27;;
47539;SDS011;33280;52.152;21.052;2023-03-01T05:23:45;52.47;;;24.43;;
47539;SDS011;33280;52.152;21.052;2023-03-01T05:26:13;61.27;;;24.47;;
47539;SDS011;33280;52.152;21.052;2023-03-01T05:28:53;60.13;;;23.13;;
47539;SDS011;33280;52.152;21.052;2023-03-01T05:31:25;54.83;;;24.07;;
47539;SDS011;33280;52.152;21.052;2023-03-01T05:33:52;58.27;;;23.77;;
47539;SDS011;33280;52.152;21.052;2023-03-01T05:36:19;58.37;;;23.87;;
47539;SDS011;33280;52.152;21.052;2023-03-01T05:38:46;60.43;;;24.67;;
47539;SDS011;33280;52.152;21.052;2023-03-01T05:41:14;53.47;;;24.27;;
47539;SDS011;33280;52.152;21.052;2023-03-01T05:43:41;53.00;;;22.23;;
47539;SDS011;33280;52.152;21.052;2023-03-01T05:46:11;59.97;;;23.17;;
47539;SDS011;33280;52.152;21.052;2023-03-01T05:48:40;58.13;;;24.33;;
47539;SDS011;33280;52.152;21.052;2023-03-01T05:51:07;66.73;;;24.57;;
47539;SDS011;33280;52.152;21.052;2023-03-01T05:53:34;55.60;;;24.03;;
47539;SDS011;33280;52.152;21.052;2023-03-01T05:56:04;55.33;;;23.17;;
47539;SDS011;33280;52.152;21.052;2023-03-01T05:58:32;59.70;;;24.80;;
47539;SDS011;33280;52.152;21.052;2023-03-01T06:00:59;57.23;;;23.57;;
47539;SDS011;33280;52.152;21.052;2023-03-01T06:03:26;56.30;;;23.63;;
47539;SDS011;33280;52.152;21.052;2023-03-01T06:05:56;51.90;;;23.03;;
47539;SDS011;33280;52.152;21.052;2023-03-01T06:08:24;51.47;;;23.83;;
47539;SDS011;33280;52.152;21.052;2023-03-01T06:10:53;61.00;;;25.23;;
47539;SDS011;33280;52.152;21.052;2023-03-01T06:13:20;57.93;;;24.17;;
47539;SDS011;33280;52.152;21.052;2023-03-01T06:15:47;58.63;;;24.43;;
47539;SDS011;33280;52.152;21.052;2023-03-01T06:18:14;63.77;;;24.53;;
47539;SDS011;33280;52.152;21.052;2023-03-01T06:20:41;58.60;;;25.27;;
47539;SDS011;33280;52.152;21.052;2023-03-01T06:23:07;59.37;;;24.03;;
47539;SDS011;33280;52.152;21.052;2023-03-01T06:25:35;64.07;;;24.87;;
47539;SDS011;33280;52.152;21.052;2023-03-01T06:28:03;60.13;;;24.83;;
47539;SDS011;33280;52.152;21.052;2023-03-01T06:30:30;57.63;;;24.27;;
47539;SDS011;33280;52.152;21.052;2023-03-01T06:32:58;55.10;;;24.47;;
47539;SDS011;33280;52.152;21.052;2023-03-01T06:35:27;58.97;;;24.97;;
47539;SDS011;33280;52.152;21.052;2023-03-01T06:37:56;56.57;;;24.17;;
47539;SDS011;33280;52.152;21.052;2023-03-01T06:40:24;60.17;;;25.20;;
47539;SDS011;33280;52.152;21.052;2023-03-01T06:42:51;58.87;;;25.27;;
47539;SDS011;33280;52.152;21.052;2023-03-01T06:45:19;58.27;;;25.40;;
47539;SDS011;33280;52.152;21.052;2023-03-01T06:47:47;58.83;;;24.40;;
47539;SDS011;33280;52.152;21.052;2023-03-01T06:50:14;61.13;;;25.03;;
47539;SDS011;33280;52.152;21.052;2023-03-01T06:52:42;58.47;;;24.00;;
47539;SDS011;33280;52.152;21.052;2023-03-01T06:55:11;60.20;;;24.73;;
47539;SDS011;33280;52.152;21.052;2023-03-01T06:57:39;58.87;;;24.27;;
47539;SDS011;33280;52.152;21.052;2023-03-01T07:00:06;59.87;;;24.87;;
47539;SDS011;33280;52.152;21.052;2023-03-01T07:02:34;57.57;;;25.33;;
47539;SDS011;33280;52.152;21.052;2023-03-01T07:05:06;55.43;;;24.20;;
47539;SDS011;33280;52.152;21.052;2023-03-01T07:07:34;58.80;;;24.93;;
47539;SDS011;33280;52.152;21.052;2023-03-01T07:10:01;57.10;;;25.67;;
47539;SDS011;33280;52.152;21.052;2023-03-01T07:12:28;57.50;;;24.13;;
47539;SDS011;33280;52.152;21.052;2023-03-01T07:14:55;57.00;;;25.23;;
47539;SDS011;33280;52.152;21.052;2023-03-01T07:17:22;53.87;;;24.43;;
47539;SDS011;33280;52.152;21.052;2023-03-01T07:19:49;55.20;;;23.83;;
47539;SDS011;33280;52.152;21.052;2023-03-01T07:22:16;52.03;;;23.63;;
47539;SDS011;33280;52.152;21.052;2023-03-01T07:24:43;54.47;;;24.47;;
47539;SDS011;33280;52.152;21.052;2023-03-01T07:27:10;53.47;;;24.23;;
47539;SDS011;33280;52.152;21.052;2023-03-01T07:29:38;58.97;;;24.70;;
47539;SDS011;33280;52.152;21.052;2023-03-01T07:32:05;57.43;;;25.57;;
47539;SDS011;33280;52.152;21.052;2023-03-01T07:34:32;57.87;;;24.77;;
47539;SDS011;33280;52.152;21.052;2023-03-01T07:36:59;54.47;;;24.20;;
47539;SDS011;33280;52.152;21.052;2023-03-01T07:39:26;54.43;;;23.73;;
47539;SDS011;33280;52.152;21.052;2023-03-01T07:41:53;54.27;;;23.70;;
47539;SDS011;33280;52.152;21.052;2023-03-01T07:44:20;52.93;;;24.07;;
47539;SDS011;33280;52.152;21.052;2023-03-01T07:46:47;49.03;;;21.97;;
47539;SDS011;33280;52.152;21.052;2023-03-01T07:49:14;49.87;;;22.53;;
47539;SDS011;33280;52.152;21.052;2023-03-01T07:51:40;47.57;;;22.17;;
47539;SDS011;33280;52.152;21.052;2023-03-01T07:54:09;47.73;;;22.73;;
47539;SDS011;33280;52.152;21.052;2023-03-01T07:56:36;47.50;;;21.63;;
47539;SDS011;33280;52.152;21.052;2023-03-01T07:59:03;49.40;;;22.20;;
47539;SDS011;33280;52.152;21.052;2023-03-01T08:01:30;50.60;;;22.97;;
47539;SDS011;33280;52.152;21.052;2023-03-01T08:03:56;48.57;;;21.57;;
47539;SDS011;33280;52.152;21.052;2023-03-01T08:06:23;49.10;;;22.87;;
47539;SDS011;33280;52.152;21.052;2023-03-01T08:08:50;46.10;;;22.67;;
47539;SDS011;33280;52.152;21.052;2023-03-01T08:11:17;47.47;;;21.90;;
47539;SDS011;33280;52.152;21.052;2023-03-01T08:13:44;45.40;;;21.47;;
47539;SDS011;33280;52.152;21.052;2023-03-01T08:16:17;47.30;;;21.67;;
47539;SDS011;33280;52.152;21.052;2023-03-01T08:18:43;46.80;;;19.83;;
47539;SDS011;33280;52.152;21.052;2023-03-01T08:21:11;48.17;;;21.13;;
47539;SDS011;33280;52.152;21.052;2023-03-01T08:23:40;44.07;;;20.90;;
47539;SDS011;33280;52.152;21.052;2023-03-01T08:26:12;43.37;;;20.70;;
47539;SDS011;33280;52.152;21.052;2023-03-01T08:28:45;45.57;;;20.10;;
47539;SDS011;33280;52.152;21.052;2023-03-01T08:31:13;45.07;;;20.13;;
47539;SDS011;33280;52.152;21.052;2023-03-01T08:33:48;42.43;;;19.03;;
47539;SDS011;33280;52.152;21.052;2023-03-01T08:36:22;36.77;;;18.33;;
47539;SDS011;33280;52.152;21.052;2023-03-01T08:38:54;31.90;;;17.23;;
47539;SDS011;33280;52.152;21.052;2023-03-01T08:41:21;36.00;;;16.70;;
47539;SDS011;33280;52.152;21.052;2023-03-01T08:43:49;36.93;;;18.27;;
47539;SDS011;33280;52.152;21.052;2023-03-01T08:46:16;36.87;;;17.87;;
47539;SDS011;33280;52.152;21.052;2023-03-01T08:48:42;39.20;;;17.93;;
47539;SDS011;33280;52.152;21.052;2023-03-01T08:51:13;39.50;;;17.50;;
47539;SDS011;33280;52.152;21.052;2023-03-01T08:53:45;37.10;;;16.13;;
47539;SDS011;33280;52.152;21.052;2023-03-01T08:56:13;32.10;;;15.63;;
47539;SDS011;33280;52.152;21.052;2023-03-01T08:58:43;33.80;;;15.10;;
47539;SDS011;33280;52.152;21.052;2023-03-01T09:01:12;31.03;;;14.07;;
47539;SDS011;33280;52.152;21.052;2023-03-01T09:03:45;29.80;;;15.30;;
47539;SDS011;33280;52.152;21.052;2023-03-01T09:06:12;28.23;;;14.47;;
47539;SDS011;33280;52.152;21.052;2023-03-01T09:08:41;31.90;;;14.63;;
47539;SDS011;33280;52.152;21.052;2023-03-01T09:11:10;28.30;;;14.50;;
47539;SDS011;33280;52.152;21.052;2023-03-01T09:13:38;31.40;;;14.83;;
47539;SDS011;33280;52.152;21.052;2023-03-01T09:16:10;32.33;;;14.53;;
47539;SDS011;33280;52.152;21.052;2023-03-01T09:18:38;31.90;;;15.07;;
47539;SDS011;33280;52.152;21.052;2023-03-01T09:23:38;32.40;;;15.60;;
47539;SDS011;33280;52.152;21.052;2023-03-01T09:26:07;29.80;;;14.77;;
47539;SDS011;33280;52.152;21.052;2023-03-01T09:28:35;27.37;;;14.87;;
47539;SDS011;33280;52.152;21.052;2023-03-01T09:31:03;32.40;;;16.03;;
47539;SDS011;33280;52.152;21.052;2023-03-01T09:33:31;31.73;;;15.50;;
47539;SDS011;33280;52.152;21.052;2023-03-01T09:35:59;31.77;;;15.23;;
47539;SDS011;33280;52.152;21.052;2023-03-01T09:38:28;30.30;;;14.93;;
47539;SDS011;33280;52.152;21.052;2023-03-01T09:40:55;30.57;;;14.83;;
47539;SDS011;33280;52.152;21.052;2023-03-01T09:43:25;28.73;;;14.27;;
47539;SDS011;33280;52.152;21.052;2023-03-01T09:45:59;35.80;;;14.27;;
47539;SDS011;33280;52.152;21.052;2023-03-01T09:48:57;30.63;;;14.03;;
47539;SDS011;33280;52.152;21.052;2023-03-01T09:51:33;26.67;;;14.07;;
47539;SDS011;33280;52.152;21.052;2023-03-01T09:54:02;29.83;;;15.30;;
47539;SDS011;33280;52.152;21.052;2023-03-01T09:56:36;32.80;;;14.73;;
47539;SDS011;33280;52.152;21.052;2023-03-01T09:59:37;29.97;;;14.53;;
47539;SDS011;33280;52.152;21.052;2023-03-01T10:02:21;29.70;;;14.60;;
47539;SDS011;33280;52.152;21.052;2023-03-01T10:04:49;28.83;;;14.70;;
47539;SDS011;33280;52.152;21.052;2023-03-01T10:10:05;25.17;;;13.40;;
47539;SDS011;33280;52.152;21.052;2023-03-01T10:12:35;26.60;;;13.77;;
47539;SDS011;33280;52.152;21.052;2023-03-01T10:20:23;25.57;;;13.77;;
47539;SDS011;33280;52.152;21.052;2023-03-01T10:22:52;26.23;;;13.17;;
47539;SDS011;33280;52.152;21.052;2023-03-01T10:30:57;24.37;;;12.20;;
47539;SDS011;33280;52.152;21.052;2023-03-01T10:33:32;24.57;;;12.17;;
47539;SDS011;33280;52.152;21.052;2023-03-01T10:36:02;25.13;;;12.83;;
47539;SDS011;33280;52.152;21.052;2023-03-01T10:38:30;28.73;;;12.73;;
47539;SDS011;33280;52.152;21.052;2023-03-01T10:41:12;21.83;;;11.93;;
47539;SDS011;33280;52.152;21.052;2023-03-01T10:43:56;23.43;;;13.23;;
47539;SDS011;33280;52.152;21.052;2023-03-01T10:46:25;23.77;;;13.20;;
47539;SDS011;33280;52.152;21.052;2023-03-01T10:49:19;25.77;;;13.87;;
47539;SDS011;33280;52.152;21.052;2023-03-01T10:51:48;29.67;;;14.23;;
47539;SDS011;33280;52.152;21.052;2023-03-01T10:54:22;29.47;;;14.77;;
47539;SDS011;33280;52.152;21.052;2023-03-01T10:56:56;26.67;;;13.80;;
47539;SDS011;33280;52.152;21.052;2023-03-01T10:59:32;27.73;;;13.37;;
47539;SDS011;33280;52.152;21.052;2023-03-01T11:05:16;22.27;;;12.67;;
47539;SDS011;33280;52.152;21.052;2023-03-01T11:07:56;25.50;;;12.90;;
47539;SDS011;33280;52.152;21.052;2023-03-01T11:10:27;23.30;;;12.47;;
47539;SDS011;33280;52.152;21.052;2023-03-01T11:16:13;24.37;;;12.83;;
47539;SDS011;33280;52.152;21.052;2023-03-01T11:18:40;28.43;;;13.03;;
47539;SDS011;33280;52.152;21.052;2023-03-01T11:21:14;22.70;;;11.90;;
47539;SDS011;33280;52.152;21.052;2023-03-01T11:23:42;23.93;;;11.77;;
47539;SDS011;33280;52.152;21.052;2023-03-01T11:26:11;22.30;;;11.83;;
47539;SDS011;33280;52.152;21.052;2023-03-01T11:28:41;18.07;;;10.00;;
47539;SDS011;33280;52.152;21.052;2023-03-01T11:31:14;18.07;;;10.57;;
47539;SDS011;33280;52.152;21.052;2023-03-01T11:33:44;21.17;;;10.10;;
47539;SDS011;33280;52.152;21.052;2023-03-01T11:36:30;18.60;;;10.50;;
47539;SDS011;33280;52.152;21.052;2023-03-01T11:39:02;17.97;;;10.77;;
47539;SDS011;33280;52.152;21.052;2023-03-01T11:41:52;18.10;;;9.97;;
47539;SDS011;33280;52.152;21.052;2023-03-01T11:44:44;17.43;;;9.77;;
47539;SDS011;33280;52.152;21.052;2023-03-01T11:52:40;20.33;;;9.90;;
47539;SDS011;33280;52.152;21.052;2023-03-01T12:03:52;19.00;;;9.97;;
47539;SDS011;33280;52.152;21.052;2023-03-01T12:20:12;15.70;;;9.80;;
47539;SDS011;33280;52.152;21.052;2023-03-01T12:31:55;16.53;;;9.70;;
47539;SDS011;33280;52.152;21.052;2023-03-01T12:43:33;15.30;;;9.23;;
47539;SDS011;33280;52.152;21.052;2023-03-01T12:51:26;16.10;;;9.43;;
47539;SDS011;33280;52.152;21.052;2023-03-01T12:53:57;13.33;;;9.07;;
47539;SDS011;33280;52.152;21.052;2023-03-01T12:56:28;19.20;;;10.20;;
47539;SDS011;33280;52.152;21.052;2023-03-01T13:04:52;16.47;;;9.90;;
47539;SDS011;33280;52.152;21.052;2023-03-01T13:12:52;20.90;;;12.20;;
47539;SDS011;33280;52.152;21.052;2023-03-01T13:20:19;19.37;;;9.90;;
47539;SDS011;33280;52.152;21.052;2023-03-01T13:22:48;15.63;;;9.23;;
47539;SDS011;33280;52.152;21.052;2023-03-01T13:25:27;16.47;;;9.70;;
47539;SDS011;33280;52.152;21.052;2023-03-01T13:31:11;19.57;;;10.07;;
47539;SDS011;33280;52.152;21.052;2023-03-01T13:33:58;14.27;;;8.87;;
47539;SDS011;33280;52.152;21.052;2023-03-01T13:39:00;17.60;;;10.23;;
47539;SDS011;33280;52.152;21.052;2023-03-01T13:46:57;17.33;;;8.93;;
47539;SDS011;33280;52.152;21.052;2023-03-01T13:52:28;17.83;;;10.33;;
47539;SDS011;33280;52.152;21.052;2023-03-01T13:55:04;16.13;;;10.00;;
47539;SDS011;33280;52.152;21.052;2023-03-01T13:57:56;21.40;;;10.47;;
47539;SDS011;33280;52.152;21.052;2023-03-01T14:03:17;20.30;;;10.30;;
47539;SDS011;33280;52.152;21.052;2023-03-01T14:08:41;17.37;;;9.43;;
47539;SDS011;33280;52.152;21.052;2023-03-01T14:16:54;20.33;;;10.40;;
47539;SDS011;33280;52.152;21.052;2023-03-01T14:19:24;18.43;;;10.03;;
47539;SDS011;33280;52.152;21.052;2023-03-01T14:24:50;21.60;;;10.67;;
47539;SDS011;33280;52.152;21.052;2023-03-01T14:27:20;23.23;;;10.70;;
47539;SDS011;33280;52.152;21.052;2023-03-01T14:29:56;20.30;;;10.97;;
47539;SDS011;33280;52.152;21.052;2023-03-01T14:32:30;21.23;;;10.83;;
47539;SDS011;33280;52.152;21.052;2023-03-01T14:34:59;20.33;;;11.27;;
47539;SDS011;33280;52.152;21.052;2023-03-01T14:37:28;19.50;;;10.37;;
47539;SDS011;33280;52.152;21.052;2023-03-01T14:39:58;18.87;;;10.57;;
47539;SDS011;33280;52.152;21.052;2023-03-01T14:42:27;22.23;;;10.67;;
47539;SDS011;33280;52.152;21.052;2023-03-01T14:44:58;22.77;;;10.53;;
47539;SDS011;33280;52.152;21.052;2023-03-01T14:47:31;18.43;;;9.77;;
47539;SDS011;33280;52.152;21.052;2023-03-01T14:53:03;24.47;;;11.07;;
47539;SDS011;33280;52.152;21.052;2023-03-01T14:55:37;21.47;;;11.27;;
47539;SDS011;33280;52.152;21.052;2023-03-01T14:58:14;20.80;;;11.30;;
47539;SDS011;33280;52.152;21.052;2023-03-01T15:00:49;24.83;;;11.77;;
47539;SDS011;33280;52.152;21.052;2023-03-01T15:03:30;21.73;;;11.50;;
47539;SDS011;33280;52.152;21.052;2023-03-01T15:05:58;22.53;;;12.00;;
47539;SDS011;33280;52.152;21.052;2023-03-01T15:08:27;23.87;;;12.40;;
47539;SDS011;33280;52.152;21.052;2023-03-01T15:11:15;26.87;;;12.27;;
47539;SDS011;33280;52.152;21.052;2023-03-01T15:13:49;24.50;;;12.83;;
47539;SDS011;33280;52.152;21.052;2023-03-01T15:16:19;27.70;;;12.40;;
47539;SDS011;33280;52.152;21.052;2023-03-01T15:18:50;28.60;;;13.27;;
47539;SDS011;33280;52.152;21.052;2023-03-01T15:21:25;28.00;;;13.70;;
47539;SDS011;33280;52.152;21.052;2023-03-01T15:26:29;27.40;;;12.97;;
47539;SDS011;33280;52.152;21.052;2023-03-01T15:29:01;25.10;;;12.67;;
47539;SDS011;33280;52.152;21.052;2023-03-01T15:31:31;26.93;;;13.30;;
47539;SDS011;33280;52.152;21.052;2023-03-01T15:37:01;27.43;;;12.47;;
47539;SDS011;33280;52.152;21.052;2023-03-01T15:39:41;26.47;;;12.57;;
47539;SDS011;33280;52.152;21.052;2023-03-01T15:42:13;26.37;;;12.93;;
47539;SDS011;33280;52.152;21.052;2023-03-01T15:47:46;23.50;;;12.17;;
47539;SDS011;33280;52.152;21.052;2023-03-01T15:50:20;24.53;;;12.17;;
47539;SDS011;33280;52.152;21.052;2023-03-01T15:52:55;25.07;;;12.73;;
47539;SDS011;33280;52.152;21.052;2023-03-01T15:55:25;25.00;;;12.60;;
47539;SDS011;33280;52.152;21.052;2023-03-01T15:58:00;23.13;;;12.20;;
47539;SDS011;33280;52.152;21.052;2023-03-01T16:00:36;26.30;;;12.97;;
47539;SDS011;33280;52.152;21.052;2023-03-01T16:03:10;26.50;;;12.53;;
47539;SDS011;33280;52.152;21.052;2023-03-01T16:05:38;25.23;;;12.67;;
47539;SDS011;33280;52.152;21.052;2023-03-01T16:08:05;31.33;;;12.27;;
47539;SDS011;33280;52.152;21.052;2023-03-01T16:10:33;25.53;;;13.00;;
47539;SDS011;33280;52.152;21.052;2023-03-01T16:13:00;27.07;;;12.67;;
47539;SDS011;33280;52.152;21.052;2023-03-01T16:15:31;28.57;;;12.70;;
47539;SDS011;33280;52.152;21.052;2023-03-01T16:18:00;27.97;;;12.90;;
47539;SDS011;33280;52.152;21.052;2023-03-01T16:20:28;24.83;;;12.30;;
47539;SDS011;33280;52.152;21.052;2023-03-01T16:22:59;24.43;;;12.43;;
47539;SDS011;33280;52.152;21.052;2023-03-01T16:25:27;25.57;;;12.60;;
47539;SDS011;33280;52.152;21.052;2023-03-01T16:27:55;25.07;;;12.43;;
47539;SDS011;33280;52.152;21.052;2023-03-01T16:30:24;25.73;;;12.60;;
47539;SDS011;33280;52.152;21.052;2023-03-01T16:32:52;22.97;;;12.37;;
47539;SDS011;33280;52.152;21.052;2023-03-01T16:35:19;22.17;;;12.00;;
47539;SDS011;33280;52.152;21.052;2023-03-01T16:37:48;25.77;;;12.87;;
47539;SDS011;33280;52.152;21.052;2023-03-01T16:42:45;24.47;;;12.93;;
47539;SDS011;33280;52.152;21.052;2023-03-01T16:45:12;24.83;;;12.70;;
47539;SDS011;33280;52.152;21.052;2023-03-01T16:47:50;27.33;;;13.03;;
47539;SDS011;33280;52.152;21.052;2023-03-01T16:50:20;28.53;;;12.97;;
47539;SDS011;33280;52.152;21.052;2023-03-01T16:52:48;31.13;;;13.03;;
47539;SDS011;33280;52.152;21.052;2023-03-01T16:55:15;27.30;;;12.73;;
47539;SDS011;33280;52.152;21.052;2023-03-01T16:57:42;25.00;;;12.97;;
47539;SDS011;33280;52.152;21.052;2023-03-01T17:00:10;27.37;;;13.10;;
47539;SDS011;33280;52.152;21.052;2023-03-01T17:02:40;29.63;;;13.13;;